sensor_id;sensor_type;location;lat;lon;timestamp;pressure;altitude;pressure_sealevel;temperature;humidity
5753;BME280;2901;42.140;24.760;2022-10-16T00:00:30;100156.00;;;12.49;98.35
5753;BME280;2901;42.140;24.760;2022-10-16T00:02:55;100155.13;;;12.54;98.57
5753;BME280;2901;42.140;24.760;2022-10-16T00:05:21;100164.63;;;12.62;98.01
5753;BME280;2901;42.140;24.760;2022-10-16T00:07:46;100167.22;;;12.64;97.60
5753;BME280;2901;42.140;24.760;2022-10-16T00:10:12;100169.78;;;12.70;97.17
5753;BME280;2901;42.140;24.760;2022-10-16T00:12:37;100167.19;;;12.68;97.84
5753;BME280;2901;42.140;24.760;2022-10-16T00:15:03;100167.19;;;12.67;97.52
5753;BME280;2901;42.140;24.760;2022-10-16T00:17:29;100172.38;;;12.65;98.32
5753;BME280;2901;42.140;24.760;2022-10-16T00:19:55;100173.28;;;12.67;98.46
5753;BME280;2901;42.140;24.760;2022-10-16T00:22:20;100168.13;;;12.52;98.51
5753;BME280;2901;42.140;24.760;2022-10-16T00:24:46;100180.28;;;12.47;99.13
5753;BME280;2901;42.140;24.760;2022-10-16T00:27:11;100170.75;;;12.41;99.27
5753;BME280;2901;42.140;24.760;2022-10-16T00:29:36;100173.38;;;12.37;99.96
5753;BME280;2901;42.140;24.760;2022-10-16T00:32:02;100167.31;;;12.41;99.45
5753;BME280;2901;42.140;24.760;2022-10-16T00:34:27;100169.91;;;12.36;98.95
5753;BME280;2901;42.140;24.760;2022-10-16T00:36:53;100169.06;;;12.25;100.00
5753;BME280;2901;42.140;24.760;2022-10-16T00:39:18;100169.94;;;12.24;100.00
5753;BME280;2901;42.140;24.760;2022-10-16T00:41:44;100184.66;;;12.16;100.00
5753;BME280;2901;42.140;24.760;2022-10-16T00:47:27;100186.38;;;12.16;100.00
5753;BME280;2901;42.140;24.760;2022-10-16T00:49:59;100188.13;;;12.20;100.00
5753;BME280;2901;42.140;24.760;2022-10-16T00:52:27;100191.63;;;12.08;100.00
5753;BME280;2901;42.140;24.760;2022-10-16T00:54:54;100198.56;;;11.94;100.00
5753;BME280;2901;42.140;24.760;2022-10-16T00:57:20;100201.16;;;11.88;100.00
5753;BME280;2901;42.140;24.760;2022-10-16T00:59:45;100205.47;;;11.83;100.00
5753;BME280;2901;42.140;24.760;2022-10-16T01:02:15;100211.50;;;11.73;100.00
5753;BME280;2901;42.140;24.760;2022-10-16T01:05:02;100214.09;;;11.73;100.00
5753;BME280;2901;42.140;24.760;2022-10-16T01:15:53;100236.56;;;11.56;100.00
5753;BME280;2901;42.140;24.760;2022-10-16T01:20:54;100225.28;;;11.34;100.00
5753;BME280;2901;42.140;24.760;2022-10-16T01:26:20;100228.75;;;11.39;100.00
5753;BME280;2901;42.140;24.760;2022-10-16T01:31:22;100234.78;;;11.35;100.00
5753;BME280;2901;42.140;24.760;2022-10-16T01:34:10;100233.94;;;11.39;100.00
5753;BME280;2901;42.140;24.760;2022-10-16T01:36:42;100236.53;;;11.37;100.00
5753;BME280;2901;42.140;24.760;2022-10-16T01:39:11;100237.38;;;11.36;100.00
5753;BME280;2901;42.140;24.760;2022-10-16T01:41:40;100246.91;;;11.37;100.00
5753;BME280;2901;42.140;24.760;2022-10-16T01:44:08;100246.03;;;11.41;100.00
5753;BME280;2901;42.140;24.760;2022-10-16T01:46:37;100246.91;;;11.43;100.00
5753;BME280;2901;42.140;24.760;2022-10-16T01:49:05;100249.50;;;11.39;100.00
5753;BME280;2901;42.140;24.760;2022-10-16T01:51:32;100255.53;;;11.39;100.00
5753;BME280;2901;42.140;24.760;2022-10-16T01:54:00;100257.28;;;11.36;100.00
5753;BME280;2901;42.140;24.760;2022-10-16T01:56:28;100256.41;;;11.32;100.00
5753;BME280;2901;42.140;24.760;2022-10-16T01:59:13;100256.41;;;11.29;100.00
5753;BME280;2901;42.140;24.760;2022-10-16T02:01:42;100255.53;;;11.41;100.00
5753;BME280;2901;42.140;24.760;2022-10-16T02:04:18;100254.69;;;11.45;100.00
5753;BME280;2901;42.140;24.760;2022-10-16T02:06:46;100249.50;;;11.48;100.00
5753;BME280;2901;42.140;24.760;2022-10-16T02:09:12;100253.84;;;11.54;100.00
5753;BME280;2901;42.140;24.760;2022-10-16T02:11:37;100254.72;;;11.51;100.00
5753;BME280;2901;42.140;24.760;2022-10-16T02:14:05;100254.69;;;11.50;100.00
5753;BME280;2901;42.140;24.760;2022-10-16T02:16:39;100253.84;;;11.54;100.00
5753;BME280;2901;42.140;24.760;2022-10-16T02:19:06;100254.72;;;11.56;100.00
5753;BME280;2901;42.140;24.760;2022-10-16T02:21:43;100259.91;;;11.56;100.00
5753;BME280;2901;42.140;24.760;2022-10-16T02:27:19;100258.16;;;11.50;100.00
5753;BME280;2901;42.140;24.760;2022-10-16T02:29:53;100259.03;;;11.48;100.00
5753;BME280;2901;42.140;24.760;2022-10-16T02:32:25;100262.47;;;11.48;100.00
5753;BME280;2901;42.140;24.760;2022-10-16T02:34:56;100263.34;;;11.45;100.00
5753;BME280;2901;42.140;24.760;2022-10-16T02:37:23;100270.25;;;11.42;100.00
5753;BME280;2901;42.140;24.760;2022-10-16T02:39:49;100266.78;;;11.44;100.00
5753;BME280;2901;42.140;24.760;2022-10-16T02:42:17;100275.44;;;11.42;100.00
5753;BME280;2901;42.140;24.760;2022-10-16T02:44:43;100269.38;;;11.44;100.00
5753;BME280;2901;42.140;24.760;2022-10-16T02:47:08;100271.13;;;11.52;100.00
5753;BME280;2901;42.140;24.760;2022-10-16T02:49:33;100271.13;;;11.52;100.00
5753;BME280;2901;42.140;24.760;2022-10-16T02:51:59;100273.72;;;11.53;100.00
5753;BME280;2901;42.140;24.760;2022-10-16T02:54:24;100277.19;;;11.52;100.00
5753;BME280;2901;42.140;24.760;2022-10-16T02:56:50;100281.50;;;11.52;100.00
5753;BME280;2901;42.140;24.760;2022-10-16T02:59:15;100281.50;;;11.49;100.00
5753;BME280;2901;42.140;24.760;2022-10-16T03:01:41;100284.97;;;11.54;100.00
5753;BME280;2901;42.140;24.760;2022-10-16T03:04:07;100277.19;;;11.51;100.00
5753;BME280;2901;42.140;24.760;2022-10-16T03:06:32;100284.09;;;11.55;100.00
5753;BME280;2901;42.140;24.760;2022-10-16T03:08:57;100291.03;;;11.59;100.00
5753;BME280;2901;42.140;24.760;2022-10-16T03:11:23;100289.28;;;11.53;100.00
5753;BME280;2901;42.140;24.760;2022-10-16T03:13:48;100291.91;;;11.58;100.00
5753;BME280;2901;42.140;24.760;2022-10-16T03:16:14;100292.78;;;11.61;100.00
5753;BME280;2901;42.140;24.760;2022-10-16T03:18:39;100299.69;;;11.61;100.00
5753;BME280;2901;42.140;24.760;2022-10-16T03:21:04;100298.81;;;11.63;100.00
5753;BME280;2901;42.140;24.760;2022-10-16T03:23:30;100296.25;;;11.62;100.00
5753;BME280;2901;42.140;24.760;2022-10-16T03:25:55;100306.59;;;11.60;100.00
5753;BME280;2901;42.140;24.760;2022-10-16T03:28:21;100304.00;;;11.63;100.00
5753;BME280;2901;42.140;24.760;2022-10-16T03:30:46;100300.56;;;11.64;100.00
5753;BME280;2901;42.140;24.760;2022-10-16T03:33:11;100300.53;;;11.63;100.00
5753;BME280;2901;42.140;24.760;2022-10-16T03:35:37;100291.91;;;11.55;100.00
5753;BME280;2901;42.140;24.760;2022-10-16T03:38:03;100300.53;;;11.57;100.00
5753;BME280;2901;42.140;24.760;2022-10-16T03:40:28;100302.25;;;11.59;100.00
5753;BME280;2901;42.140;24.760;2022-10-16T03:42:54;100304.00;;;11.59;100.00
5753;BME280;2901;42.140;24.760;2022-10-16T03:45:22;100310.94;;;11.58;100.00
5753;BME280;2901;42.140;24.760;2022-10-16T03:47:48;100316.97;;;11.57;100.00
5753;BME280;2901;42.140;24.760;2022-10-16T03:50:13;100306.59;;;11.54;100.00
5753;BME280;2901;42.140;24.760;2022-10-16T03:52:39;100309.16;;;11.50;100.00
5753;BME280;2901;42.140;24.760;2022-10-16T03:55:05;100322.09;;;11.43;100.00
5753;BME280;2901;42.140;24.760;2022-10-16T03:57:31;100316.06;;;11.38;100.00
5753;BME280;2901;42.140;24.760;2022-10-16T03:59:56;100326.44;;;11.38;100.00
5753;BME280;2901;42.140;24.760;2022-10-16T04:02:21;100326.41;;;11.35;100.00
5753;BME280;2901;42.140;24.760;2022-10-16T04:04:47;100330.72;;;11.32;100.00
5753;BME280;2901;42.140;24.760;2022-10-16T04:07:12;100327.25;;;11.28;100.00
5753;BME280;2901;42.140;24.760;2022-10-16T04:09:38;100327.19;;;11.18;100.00
5753;BME280;2901;42.140;24.760;2022-10-16T04:12:03;100324.56;;;11.10;100.00
5753;BME280;2901;42.140;24.760;2022-10-16T04:14:28;100326.28;;;11.05;100.00
5753;BME280;2901;42.140;24.760;2022-10-16T04:16:54;100320.22;;;11.03;100.00
5753;BME280;2901;42.140;24.760;2022-10-16T04:19:19;100327.97;;;10.97;100.00
5753;BME280;2901;42.140;24.760;2022-10-16T04:21:44;100316.72;;;10.95;100.00
5753;BME280;2901;42.140;24.760;2022-10-16T04:24:10;100326.19;;;10.90;100.00
5753;BME280;2901;42.140;24.760;2022-10-16T04:26:36;100329.56;;;10.75;100.00
5753;BME280;2901;42.140;24.760;2022-10-16T04:29:02;100335.50;;;10.61;100.00
5753;BME280;2901;42.140;24.760;2022-10-16T04:31:27;100324.19;;;10.44;100.00
5753;BME280;2901;42.140;24.760;2022-10-16T04:33:53;100324.97;;;10.30;100.00
5753;BME280;2901;42.140;24.760;2022-10-16T04:36:18;100337.00;;;10.27;100.00
5753;BME280;2901;42.140;24.760;2022-10-16T04:38:43;100327.44;;;10.21;100.00
5753;BME280;2901;42.140;24.760;2022-10-16T04:41:09;100330.00;;;10.18;100.00
5753;BME280;2901;42.140;24.760;2022-10-16T04:43:34;100336.13;;;10.23;100.00
5753;BME280;2901;42.140;24.760;2022-10-16T04:46:00;100329.19;;;10.22;100.00
5753;BME280;2901;42.140;24.760;2022-10-16T04:48:26;100330.94;;;10.23;100.00
5753;BME280;2901;42.140;24.760;2022-10-16T04:50:51;100330.06;;;10.27;100.00
5753;BME280;2901;42.140;24.760;2022-10-16T04:53:17;100336.22;;;10.37;100.00
5753;BME280;2901;42.140;24.760;2022-10-16T04:55:42;100328.47;;;10.37;100.00
5753;BME280;2901;42.140;24.760;2022-10-16T04:58:09;100348.38;;;10.47;100.00
5753;BME280;2901;42.140;24.760;2022-10-16T05:00:35;100349.25;;;10.49;100.00
5753;BME280;2901;42.140;24.760;2022-10-16T05:03:00;100354.44;;;10.52;100.00
5753;BME280;2901;42.140;24.760;2022-10-16T05:05:27;100359.66;;;10.58;100.00
5753;BME280;2901;42.140;24.760;2022-10-16T05:07:52;100351.06;;;10.64;100.00
5753;BME280;2901;42.140;24.760;2022-10-16T05:10:18;100351.94;;;10.63;100.00
5753;BME280;2901;42.140;24.760;2022-10-16T05:12:43;100356.31;;;10.71;100.00
5753;BME280;2901;42.140;24.760;2022-10-16T05:15:10;100356.34;;;10.76;100.00
5753;BME280;2901;42.140;24.760;2022-10-16T05:17:35;100358.09;;;10.81;100.00
5753;BME280;2901;42.140;24.760;2022-10-16T05:20:01;100367.66;;;10.90;100.00
5753;BME280;2901;42.140;24.760;2022-10-16T05:22:28;100374.59;;;10.97;100.00
5753;BME280;2901;42.140;24.760;2022-10-16T05:24:53;100377.22;;;11.03;100.00
5753;BME280;2901;42.140;24.760;2022-10-16T05:27:19;100376.38;;;11.07;100.00
5753;BME280;2901;42.140;24.760;2022-10-16T05:29:45;100369.44;;;11.03;100.00
5753;BME280;2901;42.140;24.760;2022-10-16T05:32:12;100377.19;;;10.97;100.00
5753;BME280;2901;42.140;24.760;2022-10-16T05:34:37;100378.91;;;10.93;100.00
5753;BME280;2901;42.140;24.760;2022-10-16T05:37:03;100378.88;;;10.87;100.00
5753;BME280;2901;42.140;24.760;2022-10-16T05:39:28;100388.38;;;10.90;100.00
5753;BME280;2901;42.140;24.760;2022-10-16T05:41:54;100393.56;;;10.88;100.00
5753;BME280;2901;42.140;24.760;2022-10-16T05:44:19;100401.38;;;10.94;100.00
5753;BME280;2901;42.140;24.760;2022-10-16T05:46:46;100397.06;;;10.98;100.00
5753;BME280;2901;42.140;24.760;2022-10-16T05:49:12;100400.53;;;10.97;100.00
5753;BME280;2901;42.140;24.760;2022-10-16T05:51:37;100408.28;;;10.92;100.00
5753;BME280;2901;42.140;24.760;2022-10-16T05:54:02;100415.19;;;10.95;100.00
5753;BME280;2901;42.140;24.760;2022-10-16T05:56:28;100404.78;;;10.90;100.00
5753;BME280;2901;42.140;24.760;2022-10-16T05:58:53;100407.38;;;10.87;100.00
5753;BME280;2901;42.140;24.760;2022-10-16T06:01:19;100418.56;;;10.82;100.00
5753;BME280;2901;42.140;24.760;2022-10-16T06:03:46;100416.00;;;10.85;100.00
5753;BME280;2901;42.140;24.760;2022-10-16T06:06:13;100413.44;;;10.89;100.00
5753;BME280;2901;42.140;24.760;2022-10-16T06:08:40;100418.63;;;10.91;100.00
5753;BME280;2901;42.140;24.760;2022-10-16T06:11:13;100425.47;;;10.84;100.00
5753;BME280;2901;42.140;24.760;2022-10-16T06:13:39;100420.28;;;10.81;100.00
5753;BME280;2901;42.140;24.760;2022-10-16T06:16:07;100428.13;;;10.89;100.00
5753;BME280;2901;42.140;24.760;2022-10-16T06:18:32;100431.56;;;10.88;100.00
5753;BME280;2901;42.140;24.760;2022-10-16T06:20:58;100428.06;;;10.84;100.00
5753;BME280;2901;42.140;24.760;2022-10-16T06:23:24;100419.38;;;10.75;100.00
5753;BME280;2901;42.140;24.760;2022-10-16T06:25:49;100431.53;;;10.82;100.00
5753;BME280;2901;42.140;24.760;2022-10-16T06:28:15;100430.72;;;10.89;100.00
5753;BME280;2901;42.140;24.760;2022-10-16T06:30:41;100431.63;;;10.97;100.00
5753;BME280;2901;42.140;24.760;2022-10-16T06:33:09;100425.66;;;11.09;100.00
5753;BME280;2901;42.140;24.760;2022-10-16T06:35:35;100444.78;;;11.23;100.00
5753;BME280;2901;42.140;24.760;2022-10-16T06:38:00;100444.81;;;11.29;100.00
5753;BME280;2901;42.140;24.760;2022-10-16T06:40:25;100451.78;;;11.39;100.00
5753;BME280;2901;42.140;24.760;2022-10-16T06:42:51;100456.19;;;11.58;100.00
5753;BME280;2901;42.140;24.760;2022-10-16T06:45:19;100454.59;;;11.78;100.00
5753;BME280;2901;42.140;24.760;2022-10-16T06:47:44;100461.53;;;11.87;100.00
5753;BME280;2901;42.140;24.760;2022-10-16T06:50:10;100459.81;;;11.93;100.00
5753;BME280;2901;42.140;24.760;2022-10-16T06:52:35;100450.34;;;12.09;100.00
5753;BME280;2901;42.140;24.760;2022-10-16T06:55:01;100465.06;;;12.16;100.00
5753;BME280;2901;42.140;24.760;2022-10-16T06:57:27;100461.66;;;12.34;99.63
5753;BME280;2901;42.140;24.760;2022-10-16T06:59:53;100466.88;;;12.43;98.69
5753;BME280;2901;42.140;24.760;2022-10-16T07:02:19;100460.81;;;12.48;99.14
5753;BME280;2901;42.140;24.760;2022-10-16T07:04:44;100472.09;;;12.64;99.01
5753;BME280;2901;42.140;24.760;2022-10-16T07:07:10;100468.63;;;12.67;97.76
5753;BME280;2901;42.140;24.760;2022-10-16T07:09:35;100471.22;;;12.76;98.33
5753;BME280;2901;42.140;24.760;2022-10-16T07:12:01;100477.31;;;12.90;97.76
5753;BME280;2901;42.140;24.760;2022-10-16T07:14:26;100470.38;;;12.86;97.08
5753;BME280;2901;42.140;24.760;2022-10-16T07:16:51;100480.75;;;12.92;97.23
5753;BME280;2901;42.140;24.760;2022-10-16T07:19:17;100477.28;;;13.02;97.27
5753;BME280;2901;42.140;24.760;2022-10-16T07:21:43;100479.03;;;12.97;97.68
5753;BME280;2901;42.140;24.760;2022-10-16T07:24:16;100472.06;;;12.97;97.10
5753;BME280;2901;42.140;24.760;2022-10-16T07:26:44;100478.19;;;12.87;97.50
5753;BME280;2901;42.140;24.760;2022-10-16T07:29:15;100477.28;;;13.05;97.18
5753;BME280;2901;42.140;24.760;2022-10-16T07:31:41;100477.28;;;13.14;97.57
5753;BME280;2901;42.140;24.760;2022-10-16T07:34:07;100473.84;;;13.23;96.88
5753;BME280;2901;42.140;24.760;2022-10-16T07:36:32;100473.81;;;13.36;96.66
5753;BME280;2901;42.140;24.760;2022-10-16T07:38:58;100470.28;;;13.57;95.17
5753;BME280;2901;42.140;24.760;2022-10-16T07:41:23;100471.97;;;13.69;94.93
5753;BME280;2901;42.140;24.760;2022-10-16T07:43:53;100462.41;;;13.74;95.09
5753;BME280;2901;42.140;24.760;2022-10-16T07:46:21;100464.06;;;13.94;93.87
5753;BME280;2901;42.140;24.760;2022-10-16T07:48:46;100470.06;;;14.07;92.81
5753;BME280;2901;42.140;24.760;2022-10-16T07:51:18;100460.44;;;14.20;92.07
5753;BME280;2901;42.140;24.760;2022-10-16T07:53:45;100465.56;;;14.39;92.45
5753;BME280;2901;42.140;24.760;2022-10-16T07:56:11;100471.53;;;14.57;91.09
5753;BME280;2901;42.140;24.760;2022-10-16T07:58:37;100461.94;;;14.65;90.80
5753;BME280;2901;42.140;24.760;2022-10-16T08:01:11;100472.19;;;14.87;89.48
5753;BME280;2901;42.140;24.760;2022-10-16T08:03:37;100468.72;;;14.88;88.78
5753;BME280;2901;42.140;24.760;2022-10-16T08:06:03;100470.34;;;14.95;88.41
5753;BME280;2901;42.140;24.760;2022-10-16T08:08:29;100466.94;;;14.90;88.54
5753;BME280;2901;42.140;24.760;2022-10-16T08:10:55;100460.63;;;15.14;88.22
5753;BME280;2901;42.140;24.760;2022-10-16T08:13:21;100462.22;;;15.29;87.29
5753;BME280;2901;42.140;24.760;2022-10-16T08:15:46;100463.06;;;15.34;87.11
5753;BME280;2901;42.140;24.760;2022-10-16T08:18:13;100461.13;;;15.52;86.67
5753;BME280;2901;42.140;24.760;2022-10-16T08:20:40;100460.25;;;15.53;85.38
5753;BME280;2901;42.140;24.760;2022-10-16T08:23:06;100473.25;;;15.60;86.21
5753;BME280;2901;42.140;24.760;2022-10-16T08:25:34;100456.38;;;15.85;84.77
5753;BME280;2901;42.140;24.760;2022-10-16T08:27:59;100454.44;;;16.00;83.36
5753;BME280;2901;42.140;24.760;2022-10-16T08:30:25;100458.56;;;16.18;82.94
5753;BME280;2901;42.140;24.760;2022-10-16T08:32:50;100449.50;;;16.42;81.71
5753;BME280;2901;42.140;24.760;2022-10-16T08:35:16;100457.84;;;16.67;81.03
5753;BME280;2901;42.140;24.760;2022-10-16T08:37:42;100462.81;;;16.85;81.06
5753;BME280;2901;42.140;24.760;2022-10-16T08:40:19;100453.69;;;17.07;79.42
5753;BME280;2901;42.140;24.760;2022-10-16T08:50:50;100459.06;;;17.45;75.35
5753;BME280;2901;42.140;24.760;2022-10-16T08:53:38;100460.84;;;17.45;75.93
5753;BME280;2901;42.140;24.760;2022-10-16T08:56:07;100458.13;;;17.49;75.39
5753;BME280;2901;42.140;24.760;2022-10-16T08:58:32;100447.59;;;17.54;75.31
5753;BME280;2901;42.140;24.760;2022-10-16T09:01:03;100448.78;;;17.36;75.24
5753;BME280;2901;42.140;24.760;2022-10-16T09:17:45;100445.28;;;18.23;71.17
5753;BME280;2901;42.140;24.760;2022-10-16T09:23:10;100443.81;;;18.50;69.58
5753;BME280;2901;42.140;24.760;2022-10-16T09:25:38;100444.59;;;18.53;67.41
5753;BME280;2901;42.140;24.760;2022-10-16T09:28:04;100443.94;;;18.44;67.80
5753;BME280;2901;42.140;24.760;2022-10-16T09:30:30;100442.88;;;18.51;67.65
5753;BME280;2901;42.140;24.760;2022-10-16T09:32:57;100440.78;;;18.67;67.74
5753;BME280;2901;42.140;24.760;2022-10-16T09:35:32;100438.44;;;18.90;67.26
5753;BME280;2901;42.140;24.760;2022-10-16T09:37:58;100432.63;;;19.11;64.70
5753;BME280;2901;42.140;24.760;2022-10-16T09:40:42;100429.50;;;18.97;64.12
5753;BME280;2901;42.140;24.760;2022-10-16T09:46:00;100427.78;;;19.28;62.04
5753;BME280;2901;42.140;24.760;2022-10-16T09:48:43;100423.97;;;19.40;61.24
5753;BME280;2901;42.140;24.760;2022-10-16T09:51:21;100423.69;;;19.50;58.35
5753;BME280;2901;42.140;24.760;2022-10-16T09:53:48;100418.88;;;19.66;57.88
5753;BME280;2901;42.140;24.760;2022-10-16T09:56:29;100408.59;;;19.88;56.70
5753;BME280;2901;42.140;24.760;2022-10-16T09:59:00;100409.28;;;19.94;55.29
5753;BME280;2901;42.140;24.760;2022-10-16T10:01:45;100405.31;;;20.09;54.45
5753;BME280;2901;42.140;24.760;2022-10-16T10:04:11;100403.94;;;20.25;53.28
5753;BME280;2901;42.140;24.760;2022-10-16T10:06:42;100399.13;;;20.11;53.94
5753;BME280;2901;42.140;24.760;2022-10-16T10:09:27;100397.09;;;19.92;54.34
5753;BME280;2901;42.140;24.760;2022-10-16T10:11:59;100394.59;;;19.87;54.60
5753;BME280;2901;42.140;24.760;2022-10-16T10:14:38;100393.91;;;19.81;53.85
5753;BME280;2901;42.140;24.760;2022-10-16T10:19:50;100379.91;;;19.80;52.61
5753;BME280;2901;42.140;24.760;2022-10-16T10:33:00;100382.28;;;20.71;50.55
5753;BME280;2901;42.140;24.760;2022-10-16T10:54:58;100369.34;;;19.82;50.50
5753;BME280;2901;42.140;24.760;2022-10-16T10:57:38;100368.69;;;20.03;49.27
5753;BME280;2901;42.140;24.760;2022-10-16T11:03:20;100361.09;;;19.94;49.75
5753;BME280;2901;42.140;24.760;2022-10-16T11:06:02;100342.47;;;20.01;49.39
5753;BME280;2901;42.140;24.760;2022-10-16T11:08:40;100355.97;;;20.17;48.90
5753;BME280;2901;42.140;24.760;2022-10-16T11:11:17;100356.31;;;20.34;47.84
5753;BME280;2901;42.140;24.760;2022-10-16T11:21:22;100343.16;;;20.85;46.40
5753;BME280;2901;42.140;24.760;2022-10-16T11:26:19;100339.91;;;21.03;45.83
5753;BME280;2901;42.140;24.760;2022-10-16T11:28:48;100336.28;;;21.06;45.64
5753;BME280;2901;42.140;24.760;2022-10-16T11:31:37;100330.91;;;21.10;45.42
5753;BME280;2901;42.140;24.760;2022-10-16T11:34:17;100338.25;;;21.01;42.88
5753;BME280;2901;42.140;24.760;2022-10-16T11:39:26;100323.72;;;20.89;44.01
5753;BME280;2901;42.140;24.760;2022-10-16T11:42:11;100334.38;;;20.86;44.39
5753;BME280;2901;42.140;24.760;2022-10-16T11:47:34;100336.81;;;20.66;43.30
5753;BME280;2901;42.140;24.760;2022-10-16T11:55:34;100333.97;;;20.72;44.59
5753;BME280;2901;42.140;24.760;2022-10-16T11:58:37;100331.72;;;20.86;45.46
5753;BME280;2901;42.140;24.760;2022-10-16T12:08:59;100333.28;;;20.92;44.12
5753;BME280;2901;42.140;24.760;2022-10-16T12:16:59;100334.53;;;20.55;46.01
5753;BME280;2901;42.140;24.760;2022-10-16T12:19:28;100331.69;;;20.61;45.79
5753;BME280;2901;42.140;24.760;2022-10-16T12:21:58;100335.06;;;20.66;46.73
5753;BME280;2901;42.140;24.760;2022-10-16T12:24:35;100321.63;;;20.74;46.02
5753;BME280;2901;42.140;24.760;2022-10-16T12:27:01;100335.91;;;20.92;45.90
5753;BME280;2901;42.140;24.760;2022-10-16T12:29:38;100335.16;;;20.88;45.42
5753;BME280;2901;42.140;24.760;2022-10-16T12:34:52;100328.84;;;21.18;44.86
5753;BME280;2901;42.140;24.760;2022-10-16T12:37:26;100331.94;;;21.30;44.71
5753;BME280;2901;42.140;24.760;2022-10-16T12:39:54;100331.13;;;21.28;44.06
5753;BME280;2901;42.140;24.760;2022-10-16T12:42:33;100324.19;;;21.25;43.82
5753;BME280;2901;42.140;24.760;2022-10-16T12:44:59;100326.53;;;21.08;44.54
5753;BME280;2901;42.140;24.760;2022-10-16T12:49:59;100333.66;;;21.06;44.58
5753;BME280;2901;42.140;24.760;2022-10-16T12:52:29;100336.06;;;21.13;44.74
5753;BME280;2901;42.140;24.760;2022-10-16T12:55:00;100336.06;;;21.13;44.66
5753;BME280;2901;42.140;24.760;2022-10-16T12:57:38;100333.06;;;21.23;44.72
5753;BME280;2901;42.140;24.760;2022-10-16T13:00:26;100339.72;;;21.33;44.42
5753;BME280;2901;42.140;24.760;2022-10-16T13:08:42;100340.88;;;21.26;44.20
5753;BME280;2901;42.140;24.760;2022-10-16T13:17:09;100334.81;;;21.47;44.57
5753;BME280;2901;42.140;24.760;2022-10-16T13:28:08;100342.03;;;21.42;43.45
5753;BME280;2901;42.140;24.760;2022-10-16T13:30:39;100343.78;;;21.41;43.69
5753;BME280;2901;42.140;24.760;2022-10-16T13:33:13;100346.19;;;21.47;43.98
5753;BME280;2901;42.140;24.760;2022-10-16T13:35:49;100347.69;;;21.54;43.66
5753;BME280;2901;42.140;24.760;2022-10-16T13:38:20;100342.84;;;21.44;42.86
5753;BME280;2901;42.140;24.760;2022-10-16T13:40:56;100336.72;;;21.43;43.38
5753;BME280;2901;42.140;24.760;2022-10-16T13:43:34;100347.22;;;21.20;43.00
5753;BME280;2901;42.140;24.760;2022-10-16T13:46:21;100339.81;;;21.05;43.52
5753;BME280;2901;42.140;24.760;2022-10-16T13:49:05;100347.34;;;21.17;44.85
5753;BME280;2901;42.140;24.760;2022-10-16T13:51:32;100346.28;;;21.21;44.95
5753;BME280;2901;42.140;24.760;2022-10-16T13:53:58;100351.69;;;21.18;44.71
5753;BME280;2901;42.140;24.760;2022-10-16T13:56:30;100360.22;;;21.00;44.80
5753;BME280;2901;42.140;24.760;2022-10-16T13:59:03;100351.72;;;20.92;44.93
5753;BME280;2901;42.140;24.760;2022-10-16T14:01:41;100352.25;;;21.01;44.74
5753;BME280;2901;42.140;24.760;2022-10-16T14:04:10;100350.38;;;21.05;44.67
5753;BME280;2901;42.140;24.760;2022-10-16T14:06:40;100354.03;;;21.01;44.23
5753;BME280;2901;42.140;24.760;2022-10-16T14:09:08;100349.56;;;21.03;45.28
5753;BME280;2901;42.140;24.760;2022-10-16T14:11:50;100356.47;;;21.07;44.77
5753;BME280;2901;42.140;24.760;2022-10-16T14:14:19;100357.34;;;21.06;44.87
5753;BME280;2901;42.140;24.760;2022-10-16T14:16:45;100359.09;;;21.07;45.33
5753;BME280;2901;42.140;24.760;2022-10-16T14:19:24;100361.00;;;21.02;44.97
5753;BME280;2901;42.140;24.760;2022-10-16T14:21:51;100355.69;;;21.03;45.71
5753;BME280;2901;42.140;24.760;2022-10-16T14:24:33;100354.84;;;21.03;45.29
5753;BME280;2901;42.140;24.760;2022-10-16T14:27:00;100355.16;;;20.94;45.38
5753;BME280;2901;42.140;24.760;2022-10-16T14:29:28;100350.00;;;20.91;45.25
5753;BME280;2901;42.140;24.760;2022-10-16T14:32:02;100354.53;;;20.87;45.50
5753;BME280;2901;42.140;24.760;2022-10-16T14:36:59;100366.97;;;20.82;45.26
5753;BME280;2901;42.140;24.760;2022-10-16T14:39:26;100373.22;;;20.80;45.42
5753;BME280;2901;42.140;24.760;2022-10-16T14:41:54;100372.44;;;20.76;45.65
5753;BME280;2901;42.140;24.760;2022-10-16T14:44:26;100369.03;;;20.74;45.79
5753;BME280;2901;42.140;24.760;2022-10-16T14:46:53;100365.09;;;20.61;46.05
5753;BME280;2901;42.140;24.760;2022-10-16T14:49:20;100368.66;;;20.58;46.33
5753;BME280;2901;42.140;24.760;2022-10-16T14:51:47;100368.75;;;20.55;46.11
5753;BME280;2901;42.140;24.760;2022-10-16T14:54:15;100368.06;;;20.50;46.64
5753;BME280;2901;42.140;24.760;2022-10-16T14:56:52;100361.28;;;20.43;46.56
5753;BME280;2901;42.140;24.760;2022-10-16T14:59:28;100371.16;;;20.37;46.18
5753;BME280;2901;42.140;24.760;2022-10-16T15:01:55;100366.13;;;20.29;47.28
5753;BME280;2901;42.140;24.760;2022-10-16T15:04:20;100365.59;;;20.18;47.33
5753;BME280;2901;42.140;24.760;2022-10-16T15:06:46;100373.69;;;20.12;47.75
5753;BME280;2901;42.140;24.760;2022-10-16T15:09:11;100368.59;;;20.06;48.51
5753;BME280;2901;42.140;24.760;2022-10-16T15:11:37;100365.44;;;19.95;48.33
5753;BME280;2901;42.140;24.760;2022-10-16T15:14:02;100369.94;;;19.91;49.49
5753;BME280;2901;42.140;24.760;2022-10-16T15:16:29;100370.22;;;19.82;49.09
5753;BME280;2901;42.140;24.760;2022-10-16T15:18:55;100378.22;;;19.78;48.18
5753;BME280;2901;42.140;24.760;2022-10-16T15:21:24;100369.72;;;19.69;49.49
5753;BME280;2901;42.140;24.760;2022-10-16T15:23:51;100384.00;;;19.59;49.73
5753;BME280;2901;42.140;24.760;2022-10-16T15:26:16;100384.38;;;19.47;49.79
5753;BME280;2901;42.140;24.760;2022-10-16T15:28:41;100388.00;;;19.43;50.45
5753;BME280;2901;42.140;24.760;2022-10-16T15:31:07;100393.56;;;19.31;50.39